地図

経路データ

SID SEASON NUMBER BASIN SUBBASIN NAME ISO_TIME NATURE LAT LON WMO_WIND WMO_PRES WMO_AGENCY TRACK_TYPE DIST2LAND LANDFALL IFLAG USA_AGENCY USA_ATCF_ID USA_LAT USA_LON USA_RECORD USA_STATUS USA_WIND USA_PRES USA_SSHS USA_R34_NE USA_R34_SE USA_R34_SW USA_R34_NW USA_R50_NE USA_R50_SE USA_R50_SW USA_R50_NW USA_R64_NE USA_R64_SE USA_R64_SW USA_R64_NW USA_POCI USA_ROCI USA_RMW USA_EYE TOKYO_LAT TOKYO_LON TOKYO_GRADE TOKYO_WIND TOKYO_PRES TOKYO_R50_DIR TOKYO_R50_LONG TOKYO_R50_SHORT TOKYO_R30_DIR TOKYO_R30_LONG TOKYO_R30_SHORT TOKYO_LAND CMA_LAT CMA_LON CMA_CAT CMA_WIND CMA_PRES HKO_LAT HKO_LON HKO_CAT HKO_WIND HKO_PRES NEWDELHI_LAT NEWDELHI_LON NEWDELHI_GRADE NEWDELHI_WIND NEWDELHI_PRES NEWDELHI_CI NEWDELHI_DP NEWDELHI_POCI REUNION_LAT REUNION_LON REUNION_TYPE REUNION_WIND REUNION_PRES REUNION_TNUM REUNION_CI REUNION_RMW REUNION_R34_NE REUNION_R34_SE REUNION_R34_SW REUNION_R34_NW REUNION_R50_NE REUNION_R50_SE REUNION_R50_SW REUNION_R50_NW REUNION_R64_NE REUNION_R64_SE REUNION_R64_SW REUNION_R64_NW BOM_LAT BOM_LON BOM_TYPE BOM_WIND BOM_PRES BOM_TNUM BOM_CI BOM_RMW BOM_R34_NE BOM_R34_SE BOM_R34_SW BOM_R34_NW BOM_R50_NE BOM_R50_SE BOM_R50_SW BOM_R50_NW BOM_R64_NE BOM_R64_SE BOM_R64_SW BOM_R64_NW BOM_ROCI BOM_POCI BOM_EYE BOM_POS_METHOD BOM_PRES_METHOD NADI_LAT NADI_LON NADI_CAT NADI_WIND NADI_PRES WELLINGTON_LAT WELLINGTON_LON WELLINGTON_WIND WELLINGTON_PRES DS824_LAT DS824_LON DS824_STAGE DS824_WIND DS824_PRES TD9636_LAT TD9636_LON TD9636_STAGE TD9636_WIND TD9636_PRES TD9635_LAT TD9635_LON TD9635_WIND TD9635_PRES TD9635_ROCI NEUMANN_LAT NEUMANN_LON NEUMANN_CLASS NEUMANN_WIND NEUMANN_PRES MLC_LAT MLC_LON MLC_CLASS MLC_WIND MLC_PRES USA_GUST BOM_GUST BOM_GUST_PER REUNION_GUST REUNION_GUST_PER USA_SEAHGT USA_SEARAD_NE USA_SEARAD_SE USA_SEARAD_SW USA_SEARAD_NW STORM_SPEED STORM_DIR
1915231N16128 1915 26 WP MM NOT_NAMED 1915-08-19 10:00:00 NR 15.7000 127.800 main 417 417 __________O___ -1 15.7000 127.800 7 3 15
1915231N16128 1915 26 WP MM NOT_NAMED 1915-08-19 12:00:00 NR 15.7935 127.817 main 422 422 __________P___ -1 15.7935 127.817 7 3 11
1915231N16128 1915 26 WP MM NOT_NAMED 1915-08-19 15:00:00 NR 15.9362 127.837 main 428 428 __________P___ -1 15.9362 127.837 7 3 0
1915231N16128 1915 26 WP MM NOT_NAMED 1915-08-19 18:00:00 NR 16.0852 127.839 main 440 440 __________P___ -1 16.0852 127.839 7 3 355
1915231N16128 1915 26 WP MM NOT_NAMED 1915-08-19 21:00:00 NR 16.2441 127.816 main 446 453 __________P___ -1 16.2441 127.816 7 3 352
1915231N16128 1915 26 WP MM NOT_NAMED 1915-08-19 22:00:00 NR 16.3000 127.800 main 453 453 __________O___ -1 16.3000 127.800 7 4 342
1915231N16128 1915 26 WP MM NOT_NAMED 1915-08-20 00:00:00 NR 16.4167 127.756 main 459 451 __________P___ -1 16.4167 127.756 7 4 337
1915231N16128 1915 26 WP MM NOT_NAMED 1915-08-20 03:00:00 NR 16.6042 127.665 main 465 457 __________P___ -1 16.6042 127.665 7 4 334
1915231N16128 1915 26 WP MM NOT_NAMED 1915-08-20 06:00:00 NR 16.8067 127.555 main 472 464 __________P___ -1 16.8067 127.555 7 5 333
1915231N16128 1915 26 WP MM NOT_NAMED 1915-08-20 09:00:00 NR 17.0242 127.438 main 472 472 __________P___ -1 17.0242 127.438 7 5 333
1915231N16128 1915 26 WP MM NOT_NAMED 1915-08-20 10:00:00 NR 17.1000 127.400 main 480 480 __________O___ -1 17.1000 127.400 7 5 339
1915231N16128 1915 26 WP MM NOT_NAMED 1915-08-20 12:00:00 NR 17.2526 127.344 main 489 489 __________P___ -1 17.2526 127.344 7 5 341
1915231N16128 1915 26 WP MM NOT_NAMED 1915-08-20 15:00:00 NR 17.4940 127.259 main 506 499 __________P___ -1 17.4940 127.259 7 5 341
1915231N16128 1915 26 WP MM NOT_NAMED 1915-08-20 18:00:00 NR 17.7478 127.165 main 505 490 __________P___ -1 17.7478 127.165 7 6 339
1915231N16128 1915 26 WP MM NOT_NAMED 1915-08-20 21:00:00 NR 18.0108 127.047 main 490 490 __________P___ -1 18.0108 127.047 7 6 336
1915231N16128 1915 26 WP MM NOT_NAMED 1915-08-20 22:00:00 NR 18.1000 127.000 main 492 485 __________O___ -1 18.1000 127.000 7 6 332
1915231N16128 1915 26 WP MM NOT_NAMED 1915-08-21 00:00:00 NR 18.2749 126.905 main 485 464 __________P___ -1 18.2749 126.905 7 6 330
1915231N16128 1915 26 WP MM NOT_NAMED 1915-08-21 03:00:00 NR 18.5435 126.738 main 464 444 __________P___ -1 18.5435 126.738 7 7 327
1915231N16128 1915 26 WP MM NOT_NAMED 1915-08-21 06:00:00 NR 18.8197 126.535 main 444 426 __________P___ -1 18.8197 126.535 7 7 323
1915231N16128 1915 26 WP MM NOT_NAMED 1915-08-21 09:00:00 NR 19.1036 126.292 main 428 420 __________P___ -1 19.1036 126.292 7 7 320
1915231N16128 1915 26 WP MM NOT_NAMED 1915-08-21 10:00:00 NR 19.2000 126.200 main 420 405 __________O___ -1 19.2000 126.200 7 8 316
1915231N16128 1915 26 WP MM NOT_NAMED 1915-08-21 12:00:00 NR 19.3865 126.001 main 405 381 __________P___ -1 19.3865 126.001 7 8 313
1915231N16128 1915 26 WP MM NOT_NAMED 1915-08-21 15:00:00 NR 19.6724 125.664 main 385 357 __________P___ -1 19.6724 125.664 7 9 312
1915231N16128 1915 26 WP MM NOT_NAMED 1915-08-21 18:00:00 NR 19.9710 125.299 main 362 345 __________P___ -1 19.9710 125.299 7 9 312
1915231N16128 1915 26 WP MM NOT_NAMED 1915-08-21 21:00:00 NR 20.2887 124.924 main 345 344 __________P___ -1 20.2887 124.924 7 10 312
1915231N16128 1915 26 WP MM NOT_NAMED 1915-08-21 22:00:00 NR 20.4000 124.800 main 344 336 __________O___ -1 20.4000 124.800 3 10 312
1915231N16128 1915 26 WP MM NOT_NAMED 1915-08-22 00:00:00 NR 20.6174 124.530 main 337 337 __________P___ -1 20.6174 124.530 3 10 312
1915231N16128 1915 26 WP MM NOT_NAMED 1915-08-22 03:00:00 NR 20.9620 124.125 main 346 307 __________P___ -1 20.9620 124.125 3 10 315
1915231N16128 1915 26 WP MM NOT_NAMED 1915-08-22 06:00:00 NR 21.3368 123.757 main 307 260 __________P___ -1 21.3368 123.757 3 10 322
1915231N16128 1915 26 WP MM NOT_NAMED 1915-08-22 09:00:00 NR 21.7513 123.470 main 260 245 __________P___ -1 21.7513 123.470 3 10 329
1915231N16128 1915 26 WP MM NOT_NAMED 1915-08-22 10:00:00 NR 21.9000 123.400 main 245 219 __________O___ -1 21.9000 123.400 4 10 343
1915231N16128 1915 26 WP MM NOT_NAMED 1915-08-22 12:00:00 NR 22.2180 123.317 main 219 199 __________P___ -1 22.2180 123.317 4 10 352
1915231N16128 1915 26 WP MM NOT_NAMED 1915-08-22 15:00:00 NR 22.7333 123.280 main 199 188 __________P___ -1 22.7333 123.280 4 11 359
1915231N16128 1915 26 WP MM NOT_NAMED 1915-08-22 18:00:00 NR 23.2750 123.315 main 188 171 __________P___ -1 23.2750 123.315 4 11 5
1915231N16128 1915 26 WP MM NOT_NAMED 1915-08-22 21:00:00 NR 23.8209 123.379 main 171 161 __________P___ -1 23.8209 123.379 4 11 6
1915231N16128 1915 26 WP MM NOT_NAMED 1915-08-22 22:00:00 NR 24.0000 123.400 main 161 153 __________O___ -1 24.0000 123.400 4 10 5
1915231N16128 1915 26 WP MM NOT_NAMED 1915-08-23 00:00:00 NR 24.3364 123.421 main 153 145 __________P___ -1 24.3364 123.421 4 10 4
1915231N16128 1915 26 WP MM NOT_NAMED 1915-08-23 03:00:00 NR 24.8347 123.459 main 152 151 __________P___ -1 24.8347 123.459 4 10 4
1915231N16128 1915 26 WP MM NOT_NAMED 1915-08-23 06:00:00 NR 25.3308 123.492 main 154 157 __________P___ -1 25.3308 123.492 4 10 2
1915231N16128 1915 26 WP MM NOT_NAMED 1915-08-23 09:00:00 NR 25.8312 123.504 main 175 180 __________P___ -1 25.8312 123.504 4 10 0
1915231N16128 1915 26 WP MM NOT_NAMED 1915-08-23 10:00:00 NR 26.0000 123.500 main 187 187 __________O___ -1 26.0000 123.500 4 10 0
1915231N16128 1915 26 WP MM NOT_NAMED 1915-08-23 12:00:00 NR 26.3415 123.479 main 208 216 __________P___ -1 26.3415 123.479 4 10 355
1915231N16128 1915 26 WP MM NOT_NAMED 1915-08-23 15:00:00 NR 26.8622 123.420 main 236 194 __________P___ -1 26.8622 123.420 4 11 353
1915231N16128 1915 26 WP MM NOT_NAMED 1915-08-23 18:00:00 NR 27.3902 123.335 main 194 163 __________P___ -1 27.3902 123.335 4 11 351
1915231N16128 1915 26 WP MM NOT_NAMED 1915-08-23 21:00:00 NR 27.9223 123.235 main 163 158 __________P___ -1 27.9223 123.235 4 11 350
1915231N16128 1915 26 WP MM NOT_NAMED 1915-08-23 22:00:00 NR 28.1000 123.200 main 158 __________O___ -1 28.1000 123.200 4 11 349

デジタル台風データ・検索

IBTrACS Databaseについて

本データベースは、米国NOAAが公開する1842年以降の世界の熱帯低気圧のベストトラックデータアーカイブInternational Best Track Archive for Climate Stewardship (IBTrACS)を、ウェブで閲覧しやすい形式に変換したものです。

最終更新日:2021-11-26